Aurora, CO (80011)

10:07 AM MDT on September 16, 2014 (GMT -0600)
Montbello | Change Station
CLOSE
Current Station
Personal Weather Station
Location: Denver, CO
Elevation: 5364 ft
Nearby Weather Stations

Elev 5364 ft 39.78 °N, 104.82 °W | Updated 2 seconds ago

Partly Cloudy
Partly Cloudy
78.1 °F
Feels Like 78 °F
N
1.8
Wind Variable Wind from East
Gusts 1.8 mph

Today
High -- | Low -- °F
--% Chance of Precip.
Yesterday
High -- | Low -- °F
Precip. -- in
6:41 AM 7:06 PM
Last Quarter, 44% visible
Pressure 30.04 in
Visibility 10.0 miles
Clouds Few 11000 ft
Heat Index 78 °F
Dew Point 44 °F
Humidity 30%
Rainfall 0.00 in
Snow Depth 0 in , 0 in , 9 in
UV 4 out of 12
Pollen 8.10 out of 12
Ozone Good
PM2.5 Moderate
Flu Activity Not available.
METAR KBKF 161558Z 27004KT 10SM FEW110 23/07 A3023 RMK AO2A SLP170 T02330074

More Conditions Fewer Conditions

Pressure 30.04 in
Visibility 10.0 miles
Clouds Few 11000 ft
Heat Index 78 °F
Dew Point 44 °F
Humidity 30%
Rainfall 0.00 in
Snow Depth 0 in , 0 in , 9 in
UV 4 out of 12
Pollen 8.10 out of 12
Ozone Good
PM2.5 Moderate
Flu Activity Not available.
METAR KBKF 161558Z 27004KT 10SM FEW110 23/07 A3023 RMK AO2A SLP170 T02330074

More Conditions Fewer Conditions

10-Day Weather Forecast

Almanac

Astronomy

Sep. 16, 2014 Rise Set
Actual Time 6:41 AM MDT 7:06 PM MDT
Civil Twilight 6:14 AM MDT 7:33 PM MDT
Nautical Twilight 5:42 AM MDT 8:04 PM MDT
Astronomical Twilight 5:09 AM MDT 8:37 PM MDT
Moon No Moon Rise 2:31 PM MDT
Length of Visible Light 13h 18m
Length of Day
12h 24m
Tomorrow will be 2m 35s shorter.
Last Quarter, 44% of the Moon is Illuminated
Today
Last Quarter
Sep 24
New
Oct 1
First Quarter
Oct 8
Full
Oct 15
Last Quarter

Today's Extremes

State Highs State Lows

Community

WunderPhotos

Upload Photos

1,753,817 photos uploaded!

Nearby

Air Quality

  Air Quality AQ Index Pollutant
Yesterday Good
OZONE
Yesterday Good
PM10
Current Moderate
PM2.5
Current Good
OZONE
Tuesday Moderate
OZONE
Tuesday Good
PM2.5

Snow Depth

Station Depth Elevation
Phantom Valley 0 in 9030 ft
Medano Pass 0 in 9620 ft
Rawah 9 in 9020 ft
Elk River 0 in 8700 ft
Independence Pass 188 in 10600 ft

Earthquake Activity

City Distance Mag. Time & Date
No recent earthquake activity has been reported nearby.
Minimum magnitude displayed is 2.5.

Coastal Water Temperatures

Place Temperature
No Stations Reporting

Nearby Weather Stations